Time;durP1;ratioP1;P1;durP2;ratioP2;P2;SDS_P1;SDS_P2;PMS_P1;PMS_P2;Temp;Humidity;BMP_temperature;BMP_pressure;BME280_temperature;BME280_humidity;BME280_pressure;Samples;Min_cycle;Max_cycle;Signal;HPM_P1;HPM_P2
2021/05/01 00:00:17;;;;;;;63.55;39.63;;;;;;;5.50;100.00;95422.28;1019405;29;20521;-68
2021/05/01 00:00:47;;;;;;;62.10;39.00;;;;;;;5.53;100.00;95421.00;1017683;29;20623;-69
2021/05/01 00:01:17;;;;;;;67.25;41.50;;;;;;;5.48;100.00;95419.13;1019438;29;20302;-68
2021/05/01 00:01:48;;;;;;;72.47;42.72;;;;;;;5.51;100.00;95418.66;1023317;29;20066;-66
2021/05/01 00:02:18;;;;;;;69.97;41.33;;;;;;;5.50;100.00;95421.47;1019403;29;20022;-67
2021/05/01 00:02:49;;;;;;;75.88;44.00;;;;;;;5.50;100.00;95418.88;1015585;29;20016;-68
2021/05/01 00:03:19;;;;;;;64.10;41.15;;;;;;;5.49;100.00;95412.88;1023140;29;20022;-69
2021/05/01 00:03:50;;;;;;;67.00;41.42;;;;;;;5.51;100.00;95412.66;1023673;28;20016;-69
2021/05/01 00:04:20;;;;;;;65.20;40.08;;;;;;;5.53;100.00;95418.41;1030152;28;20057;-68
2021/05/01 00:04:51;;;;;;;67.47;42.35;;;;;;;5.48;100.00;95418.34;1039725;28;20014;-68
2021/05/01 00:05:22;;;;;;;71.95;42.67;;;;;;;5.50;100.00;95418.88;1030413;28;20537;-68
2021/05/01 00:05:52;;;;;;;71.82;43.15;;;;;;;5.49;100.00;95420.69;1029198;28;20273;-68
2021/05/01 00:06:23;;;;;;;68.78;43.42;;;;;;;5.52;100.00;95411.63;1031246;28;20026;-69
2021/05/01 00:06:53;;;;;;;65.60;39.95;;;;;;;5.47;100.00;95417.56;1027505;28;20086;-68
2021/05/01 00:07:23;;;;;;;70.80;41.75;;;;;;;5.47;100.00;95416.78;1034453;28;20022;-70
2021/05/01 00:07:54;;;;;;;67.55;41.67;;;;;;;5.43;100.00;95406.84;1031507;28;20026;-68
2021/05/01 00:08:28;;;;;;;69.30;42.03;;;;;;;5.43;100.00;95409.44;1023384;29;20019;-68
2021/05/01 00:08:58;;;;;;;76.05;44.15;;;;;;;5.46;100.00;95409.97;1027113;28;20141;-68
2021/05/01 00:09:29;;;;;;;79.03;45.08;;;;;;;5.44;100.00;95405.03;1021357;28;20266;-69
2021/05/01 00:09:59;;;;;;;78.45;45.80;;;;;;;5.47;100.00;95411.56;1023281;29;20019;-68
2021/05/01 00:10:30;;;;;;;82.32;44.78;;;;;;;5.41;100.00;95403.69;1023701;29;20011;-70
2021/05/01 00:11:02;;;;;;;71.05;45.03;;;;;;;5.43;100.00;95412.03;1029160;28;20525;-68
2021/05/01 00:11:32;;;;;;;78.60;44.67;;;;;;;5.26;100.00;95377.41;1030822;28;20076;-69
2021/05/01 00:12:03;;;;;;;70.70;43.97;;;;;;;5.46;100.00;95409.97;1027567;28;20262;-69
2021/05/01 00:12:33;;;;;;;73.30;44.85;;;;;;;5.47;100.00;95412.34;1027662;28;20599;-69
2021/05/01 00:13:04;;;;;;;83.63;46.10;;;;;;;5.47;100.00;95408.97;1027873;28;20046;-70
2021/05/01 00:13:34;;;;;;;104.43;50.72;;;;;;;5.46;100.00;95409.97;1031201;28;20023;-68
2021/05/01 00:14:05;;;;;;;105.95;52.97;;;;;;;5.49;100.00;95409.50;1027226;28;20019;-68
2021/05/01 00:14:36;;;;;;;83.55;48.15;;;;;;;5.49;100.00;95418.09;1031099;28;20029;-71
2021/05/01 00:15:11;;;;;;;96.60;49.75;;;;;;;5.49;100.00;95415.50;1030809;28;20273;-70
2021/05/01 00:15:41;;;;;;;100.00;50.33;;;;;;;5.49;100.00;95409.50;1027900;28;20266;-67
2021/05/01 00:16:12;;;;;;;89.50;50.00;;;;;;;5.51;100.00;95413.44;1026412;28;20775;-69
2021/05/01 00:16:42;;;;;;;101.53;51.28;;;;;;;5.51;100.00;95410.84;1023427;29;20277;-69
2021/05/01 00:17:13;;;;;;;86.13;48.92;;;;;;;5.54;100.00;95409.59;1019293;29;20024;-69
2021/05/01 00:17:44;;;;;;;80.47;47.13;;;;;;;5.51;100.00;95402.25;1021913;29;20023;-68
2021/05/01 00:18:14;;;;;;;87.57;47.38;;;;;;;5.54;100.00;95412.97;1031022;28;20395;-70
2021/05/01 00:18:45;;;;;;;82.20;47.78;;;;;;;5.51;100.00;95408.25;1027730;28;20046;-67
2021/05/01 00:19:15;;;;;;;76.50;44.50;;;;;;;5.52;100.00;95406.44;1027268;28;20026;-71
2021/05/01 00:19:45;;;;;;;96.88;49.45;;;;;;;5.50;100.00;95411.06;1022974;28;20019;-67
2021/05/01 00:20:16;;;;;;;85.78;46.40;;;;;;;5.43;100.00;95398.22;1023527;29;20516;-69
2021/05/01 00:20:46;;;;;;;89.82;48.08;;;;;;;5.46;100.00;95409.97;1031385;28;20550;-69
2021/05/01 00:21:17;;;;;;;91.47;48.65;;;;;;;5.47;100.00;95411.56;1032591;28;20538;-69
2021/05/01 00:21:47;;;;;;;99.70;50.83;;;;;;;5.46;100.00;95409.97;1035256;28;20092;-69
2021/05/01 00:22:18;;;;;;;108.97;51.13;;;;;;;5.46;100.00;95409.97;1030986;28;20026;-68
2021/05/01 00:22:48;;;;;;;89.63;48.35;;;;;;;5.49;100.00;95410.28;1021933;29;20488;-68
2021/05/01 00:23:19;;;;;;;99.65;50.65;;;;;;;5.49;100.00;95409.50;1026173;28;20053;-68
2021/05/01 00:23:49;;;;;;;118.40;54.00;;;;;;;5.42;100.00;95394.84;1023011;28;20051;-69
2021/05/01 00:24:20;;;;;;;91.28;50.45;;;;;;;5.52;100.00;95407.22;1023533;28;20474;-68
2021/05/01 00:24:50;;;;;;;97.18;50.47;;;;;;;5.41;100.00;95393.28;1022665;29;20015;-69
2021/05/01 00:25:21;;;;;;;101.18;50.97;;;;;;;5.50;100.00;95411.06;1023008;29;20425;-65
2021/05/01 00:25:51;;;;;;;91.55;49.83;;;;;;;5.53;100.00;95413.19;1019307;28;20048;-68
2021/05/01 00:26:22;;;;;;;93.40;50.28;;;;;;;5.52;100.00;95407.22;1029362;28;20015;-68
2021/05/01 00:26:52;;;;;;;92.07;48.50;;;;;;;5.51;100.00;95408.25;1027452;28;20027;-69
2021/05/01 00:27:22;;;;;;;111.63;53.63;;;;;;;5.52;100.00;95407.22;1027425;28;20389;-68
2021/05/01 00:27:53;;;;;;;101.68;51.63;;;;;;;5.54;100.00;95407.78;1026731;28;20086;-69
2021/05/01 00:28:24;;;;;;;110.47;53.95;;;;;;;5.52;100.00;95404.59;1019724;29;20082;-68
2021/05/01 00:28:55;;;;;;;118.32;56.05;;;;;;;5.54;100.00;95405.16;1019110;29;20832;-68
2021/05/01 00:29:25;;;;;;;97.07;50.40;;;;;;;5.54;100.00;95412.19;1019822;29;20461;-68
2021/05/01 00:29:56;;;;;;;102.40;50.00;;;;;;;5.51;100.00;95403.03;1018926;29;20012;-69
2021/05/01 00:30:26;;;;;;;98.45;49.67;;;;;;;5.53;100.00;95400.97;1027334;28;20027;-70
2021/05/01 00:30:57;;;;;;;128.65;56.65;;;;;;;5.56;100.00;95399.72;1023438;29;20791;-68
2021/05/01 00:31:29;;;;;;;108.93;53.65;;;;;;;5.57;100.00;95406.50;1020530;28;20024;-70
2021/05/01 00:31:59;;;;;;;114.72;51.97;;;;;;;5.56;100.00;95397.09;1026973;28;20040;-67
2021/05/01 00:32:30;;;;;;;100.10;51.25;;;;;;;5.59;100.00;95401.84;1023716;28;20781;-68
2021/05/01 00:33:00;;;;;;;97.15;50.25;;;;;;;5.60;100.00;95403.41;1026561;28;20019;-67
2021/05/01 00:33:31;;;;;;;86.68;48.75;;;;;;;5.62;100.00;95402.16;1023504;29;20023;-69
2021/05/01 00:34:02;;;;;;;89.18;49.60;;;;;;;5.61;100.00;95399.78;1023232;29;20120;-68
2021/05/01 00:34:33;;;;;;;114.85;53.95;;;;;;;5.63;100.00;95398.53;1019371;29;20092;-70
2021/05/01 00:35:04;;;;;;;104.88;52.42;;;;;;;5.64;100.00;95400.09;1022761;28;20668;-68
2021/05/01 00:35:34;;;;;;;112.90;55.08;;;;;;;5.66;100.00;95399.84;1023062;29;20098;-68
2021/05/01 00:36:05;;;;;;;90.72;48.38;;;;;;;5.56;100.00;95404.91;1023420;28;20020;-68
2021/05/01 00:36:35;;;;;;;119.55;52.00;;;;;;;5.60;100.00;95404.22;1026811;28;20019;-68
2021/05/01 00:37:06;;;;;;;113.05;52.88;;;;;;;5.61;100.00;95407.59;1031198;28;20412;-67
2021/05/01 00:37:36;;;;;;;130.40;56.50;;;;;;;5.54;100.00;95397.38;1031500;28;20026;-68
2021/05/01 00:38:07;;;;;;;120.47;54.63;;;;;;;5.58;100.00;95403.66;1031039;28;20018;-68
2021/05/01 00:38:38;;;;;;;77.75;45.90;;;;;;;5.61;100.00;95407.59;1027103;28;20019;-68
2021/05/01 00:39:08;;;;;;;102.57;51.85;;;;;;;5.61;100.00;95397.97;1019465;29;20027;-70
2021/05/01 00:39:39;;;;;;;92.15;50.25;;;;;;;5.61;100.00;95394.59;1027376;28;20290;-67
2021/05/01 00:40:10;;;;;;;98.65;49.67;;;;;;;5.60;100.00;95398.19;1022576;28;20019;-68
2021/05/01 00:40:41;;;;;;;90.78;48.08;;;;;;;5.58;100.00;95393.25;1023902;28;20039;-69
2021/05/01 00:41:11;;;;;;;78.38;45.58;;;;;;;5.56;100.00;95391.91;1025908;28;20333;-68
2021/05/01 00:41:45;;;;;;;79.65;45.40;;;;;;;5.56;100.00;95392.69;1021991;28;20117;-67
2021/05/01 00:42:15;;;;;;;85.30;47.83;;;;;;;5.56;100.00;95394.50;1031497;28;20206;-68
2021/05/01 00:42:46;;;;;;;95.15;48.88;;;;;;;5.55;100.00;95387.72;1027313;28;21008;-68
2021/05/01 00:43:16;;;;;;;108.32;52.20;;;;;;;5.46;100.00;95383.97;1026939;28;20031;-68
2021/05/01 00:43:47;;;;;;;89.80;48.05;;;;;;;5.43;100.00;95380.81;1027429;28;20030;-68
2021/05/01 00:44:17;;;;;;;90.22;47.85;;;;;;;5.50;100.00;95391.06;1023643;28;20035;-66
2021/05/01 00:44:48;;;;;;;95.13;47.72;;;;;;;5.50;100.00;95385.03;1027587;28;20030;-68
2021/05/01 00:45:18;;;;;;;102.65;49.45;;;;;;;5.51;100.00;95389.25;1010753;29;20036;-67
2021/05/01 00:45:49;;;;;;;81.93;46.30;;;;;;;5.53;100.00;95384.56;1011864;29;20123;-69
2021/05/01 00:46:20;;;;;;;117.90;53.35;;;;;;;5.53;100.00;95389.78;1015755;29;20043;-69
2021/05/01 00:46:51;;;;;;;106.47;52.22;;;;;;;5.55;100.00;95385.13;1017706;29;20659;-69
2021/05/01 00:47:21;;;;;;;97.10;50.08;;;;;;;5.57;100.00;95385.69;1027887;28;20278;-69
2021/05/01 00:47:51;;;;;;;89.63;47.75;;;;;;;5.58;100.00;95376.84;1031452;28;20538;-68
2021/05/01 00:48:22;;;;;;;80.30;43.97;;;;;;;5.53;100.00;95387.97;1018194;29;20122;-67
2021/05/01 00:48:52;;;;;;;95.50;48.22;;;;;;;5.52;100.00;95377.81;1015992;29;20546;-65
2021/05/01 00:49:23;;;;;;;89.25;47.25;;;;;;;5.52;100.00;95383.78;1011772;29;20028;-69
2021/05/01 00:49:53;;;;;;;79.07;44.53;;;;;;;5.54;100.00;95380.97;1015712;28;20131;-69
2021/05/01 00:50:24;;;;;;;70.95;41.05;;;;;;;5.55;100.00;95372.13;1025621;28;20512;-67
2021/05/01 00:50:54;;;;;;;94.00;48.40;;;;;;;5.50;100.00;95377.25;1022751;29;20043;-69
2021/05/01 00:51:25;;;;;;;102.13;48.10;;;;;;;5.52;100.00;95372.59;1027216;28;20039;-68
2021/05/01 00:51:55;;;;;;;87.45;47.00;;;;;;;5.54;100.00;95386.16;1019376;28;20040;-69
2021/05/01 00:52:26;;;;;;;91.05;49.40;;;;;;;5.50;100.00;95374.63;1027510;28;20031;-68
2021/05/01 00:52:56;;;;;;;94.97;48.45;;;;;;;5.52;100.00;95388.22;1019828;29;20059;-68
2021/05/01 00:53:28;;;;;;;92.80;47.40;;;;;;;5.54;100.00;95380.97;1023485;28;20114;-69
2021/05/01 00:53:58;;;;;;;108.85;51.13;;;;;;;5.47;100.00;95375.16;1027654;28;20309;-68
2021/05/01 00:54:29;;;;;;;90.63;46.20;;;;;;;5.52;100.00;95383.00;1016906;29;20058;-68
2021/05/01 00:54:59;;;;;;;81.97;46.22;;;;;;;5.53;100.00;95382.75;1019609;29;20043;-68
2021/05/01 00:55:30;;;;;;;79.75;44.53;;;;;;;5.55;100.00;95392.94;1030903;28;20369;-68
2021/05/01 00:56:01;;;;;;;106.35;50.63;;;;;;;5.52;100.00;95383.00;1027467;28;20023;-68
2021/05/01 00:56:31;;;;;;;98.38;48.78;;;;;;;5.50;100.00;95379.84;1029275;28;20277;-69
2021/05/01 00:57:02;;;;;;;88.28;46.78;;;;;;;5.54;100.00;95391.38;1023721;29;20082;-68
2021/05/01 00:57:32;;;;;;;82.72;47.45;;;;;;;5.53;100.00;95384.56;1023305;29;20827;-68
2021/05/01 00:58:03;;;;;;;95.32;48.88;;;;;;;5.50;100.00;95387.66;1022746;28;20034;-68
2021/05/01 00:58:34;;;;;;;85.80;47.22;;;;;;;5.53;100.00;95389.78;1023584;29;20039;-68
2021/05/01 00:59:04;;;;;;;86.10;45.50;;;;;;;5.48;100.00;95385.28;1017348;29;20683;-68
2021/05/01 00:59:35;;;;;;;81.68;45.33;;;;;;;5.50;100.00;95391.06;1019849;29;20385;-68
2021/05/01 01:00:12;;;;;;;88.18;47.30;;;;;;;5.49;100.00;95391.28;1027361;28;20023;-69
2021/05/01 01:01:51;;;;;;;76.35;43.40;;;;;;;5.48;100.00;95389.72;1025952;28;20325;-68
2021/05/01 01:02:22;;;;;;;90.68;45.55;;;;;;;5.45;100.00;95385.78;1025204;28;20067;-68
2021/05/01 01:02:53;;;;;;;85.80;45.67;;;;;;;5.45;100.00;95388.38;1022602;29;20317;-69
2021/05/01 01:03:24;;;;;;;96.53;47.28;;;;;;;5.40;100.00;95391.69;1020298;29;20738;-67
2021/05/01 01:03:54;;;;;;;84.70;46.10;;;;;;;5.37;100.00;95384.38;1023555;29;20533;-68
2021/05/01 01:04:25;;;;;;;84.47;46.70;;;;;;;5.39;100.00;95384.13;1022716;28;20035;-68
2021/05/01 01:04:55;;;;;;;83.53;44.83;;;;;;;5.38;100.00;95385.94;1027679;28;20023;-70
2021/05/01 01:05:26;;;;;;;85.07;46.47;;;;;;;5.35;100.00;95389.00;1026793;28;20085;-68
2021/05/01 01:05:56;;;;;;;70.72;43.10;;;;;;;5.34;100.00;95390.03;1026533;28;20042;-68
2021/05/01 01:06:27;;;;;;;97.18;48.90;;;;;;;5.34;100.00;95392.66;1027635;28;20420;-68
2021/05/01 01:06:57;;;;;;;87.85;47.55;;;;;;;5.34;100.00;95391.88;1027492;28;20027;-69
2021/05/01 01:07:28;;;;;;;81.50;45.17;;;;;;;5.33;100.00;95392.88;1026050;28;20034;-68
2021/05/01 01:07:58;;;;;;;85.68;45.70;;;;;;;5.28;100.00;95398.78;1030801;28;20097;-68
2021/05/01 01:08:29;;;;;;;78.65;45.58;;;;;;;5.30;100.00;95396.75;1035473;28;20696;-68
2021/05/01 01:08:59;;;;;;;93.28;47.85;;;;;;;5.30;100.00;95390.75;1031546;28;20134;-68
2021/05/01 01:09:29;;;;;;;82.03;45.45;;;;;;;5.32;100.00;95393.91;1029167;28;20101;-70
2021/05/01 01:10:00;;;;;;;88.25;46.50;;;;;;;5.32;100.00;95399.09;1019254;29;20094;-68
2021/05/01 01:10:30;;;;;;;83.07;46.22;;;;;;;5.30;100.00;95395.94;1019951;29;20450;-68
2021/05/01 01:11:01;;;;;;;80.28;46.40;;;;;;;5.28;100.00;95398.78;1024031;28;20082;-68
2021/05/01 01:11:31;;;;;;;86.47;46.50;;;;;;;5.31;100.00;95393.13;1023436;29;20035;-69
2021/05/01 01:12:02;;;;;;;103.57;49.53;;;;;;;5.31;100.00;95397.53;1023514;29;20027;-68
2021/05/01 01:12:32;;;;;;;74.50;43.53;;;;;;;5.29;100.00;95389.97;1023848;28;20070;-68
2021/05/01 01:13:03;;;;;;;96.80;48.50;;;;;;;5.32;100.00;95397.28;1023310;28;20035;-68
2021/05/01 01:13:33;;;;;;;97.63;49.47;;;;;;;5.28;100.00;95383.19;1027738;28;20496;-70
2021/05/01 01:14:05;;;;;;;81.55;44.15;;;;;;;5.35;100.00;95388.22;1023244;29;20027;-67
2021/05/01 01:14:35;;;;;;;95.82;49.80;;;;;;;5.25;100.00;95381.06;1023622;28;20025;-68
2021/05/01 01:15:07;;;;;;;86.80;47.05;;;;;;;5.31;100.00;95387.91;1018861;29;20264;-68
2021/05/01 01:15:37;;;;;;;99.07;47.90;;;;;;;5.32;100.00;95383.50;1023400;29;20450;-67
2021/05/01 01:16:07;;;;;;;87.75;46.83;;;;;;;5.33;100.00;95383.28;1023492;28;20270;-69
2021/05/01 01:16:39;;;;;;;83.60;46.38;;;;;;;5.33;100.00;95383.28;1031612;28;20026;-68
2021/05/01 01:17:10;;;;;;;89.95;49.10;;;;;;;5.33;100.00;95378.06;1034719;28;20103;-68
2021/05/01 01:17:40;;;;;;;89.40;46.65;;;;;;;5.33;100.00;95370.28;1027611;28;20300;-68
2021/05/01 01:18:11;;;;;;;112.00;52.72;;;;;;;5.35;100.00;95381.22;1023489;28;20027;-68
2021/05/01 01:18:41;;;;;;;114.05;51.95;;;;;;;5.35;100.00;95373.41;1023795;29;20038;-68
2021/05/01 01:19:15;;;;;;;103.65;51.20;;;;;;;5.34;100.00;95371.84;1023373;29;20035;-67
2021/05/01 01:19:45;;;;;;;123.63;55.70;;;;;;;5.36;100.00;95369.75;1023940;28;20393;-68
2021/05/01 01:20:16;;;;;;;88.85;48.20;;;;;;;5.36;100.00;95364.56;1023255;29;20298;-67
2021/05/01 01:20:46;;;;;;;102.90;50.33;;;;;;;5.39;100.00;95374.50;1019172;29;20461;-68
2021/05/01 01:21:17;;;;;;;131.18;57.53;;;;;;;5.38;100.00;95367.72;1022043;28;20445;-68
2021/05/01 01:21:47;;;;;;;130.95;56.10;;;;;;;5.40;100.00;95359.69;1027353;28;20034;-71
2021/05/01 01:22:18;;;;;;;134.63;57.53;;;;;;;5.41;100.00;95362.03;1023305;29;20019;-70
2021/05/01 01:22:48;;;;;;;106.75;52.78;;;;;;;5.43;100.00;95356.59;1019517;29;20032;-68
2021/05/01 01:23:19;;;;;;;97.07;49.40;;;;;;;5.41;100.00;95364.66;1023154;29;20535;-68
2021/05/01 01:23:50;;;;;;;98.82;50.35;;;;;;;5.42;100.00;95352.44;1015566;29;20560;-67
2021/05/01 01:24:20;;;;;;;92.82;49.65;;;;;;;5.46;100.00;95357.94;1019725;29;20031;-70
2021/05/01 01:24:50;;;;;;;113.78;54.75;;;;;;;5.47;100.00;95356.94;1030017;28;20105;-68
2021/05/01 01:25:21;;;;;;;108.32;52.00;;;;;;;5.50;100.00;95359.03;1030753;28;20026;-68
2021/05/01 01:25:51;;;;;;;110.82;54.28;;;;;;;5.50;100.00;95354.63;1031497;28;20030;-67
2021/05/01 01:26:22;;;;;;;94.85;50.38;;;;;;;5.52;100.00;95356.97;1026903;28;20030;-69
2021/05/01 01:26:52;;;;;;;98.53;51.20;;;;;;;5.48;100.00;95351.47;1019340;29;20024;-69
2021/05/01 01:27:23;;;;;;;86.30;48.20;;;;;;;5.51;100.00;95360.63;1019396;29;20573;-68
2021/05/01 01:27:53;;;;;;;87.95;47.08;;;;;;;5.53;100.00;95366.34;1025861;28;20556;-67
2021/05/01 01:28:25;;;;;;;72.38;42.70;;;;;;;5.50;100.00;95374.63;1026762;28;20026;-70
2021/05/01 01:28:56;;;;;;;85.50;46.90;;;;;;;5.50;100.00;95366.84;1026929;28;20031;-68
2021/05/01 01:29:26;;;;;;;98.75;50.03;;;;;;;5.50;100.00;95379.84;1027104;28;20672;-68
2021/05/01 01:29:56;;;;;;;100.25;48.67;;;;;;;5.48;100.00;95379.31;1030492;28;20033;-68
2021/05/01 01:30:30;;;;;;;84.50;45.35;;;;;;;5.46;100.00;95376.16;1031317;28;20037;-68
2021/05/01 01:31:00;;;;;;;73.97;44.78;;;;;;;5.43;100.00;95377.41;1031099;28;20491;-66
2021/05/01 01:31:31;;;;;;;94.50;48.88;;;;;;;5.46;100.00;95374.31;1026573;28;20270;-68
2021/05/01 01:32:01;;;;;;;90.80;46.83;;;;;;;5.47;100.00;95381.13;1019794;29;20228;-68
2021/05/01 01:32:32;;;;;;;89.82;47.38;;;;;;;5.46;100.00;95378.75;1023911;28;20067;-69
2021/05/01 01:33:07;;;;;;;86.97;46.20;;;;;;;5.43;100.00;95380.00;1018734;29;20063;-69
2021/05/01 01:33:38;;;;;;;73.03;43.85;;;;;;;5.43;100.00;95373.00;1015671;29;20043;-69
2021/05/01 01:34:08;;;;;;;83.93;44.17;;;;;;;5.43;100.00;95383.44;1015951;29;20264;-68
2021/05/01 01:34:42;;;;;;;88.53;46.33;;;;;;;5.40;100.00;95383.13;1020278;29;20035;-68
2021/05/01 01:35:13;;;;;;;83.05;44.88;;;;;;;5.39;100.00;95384.13;1023992;28;20042;-68
2021/05/01 01:35:44;;;;;;;82.80;44.85;;;;;;;5.41;100.00;95380.25;1026682;28;20349;-68
2021/05/01 01:36:14;;;;;;;86.57;46.10;;;;;;;5.42;100.00;95379.22;1023209;29;20058;-69
2021/05/01 01:36:44;;;;;;;88.38;46.25;;;;;;;5.42;100.00;95383.66;1026413;28;20037;-68
2021/05/01 01:37:15;;;;;;;82.53;44.75;;;;;;;5.44;100.00;95379.00;1027125;28;20031;-68
2021/05/01 01:37:46;;;;;;;85.05;43.88;;;;;;;5.43;100.00;95385.22;1027677;28;20311;-68
2021/05/01 01:38:16;;;;;;;95.53;48.38;;;;;;;5.44;100.00;95384.22;1022818;29;20758;-67
2021/05/01 01:38:47;;;;;;;90.47;48.33;;;;;;;5.42;100.00;95383.66;1027407;28;20262;-69
2021/05/01 01:39:20;;;;;;;80.40;45.15;;;;;;;5.40;100.00;95381.28;1023713;28;20032;-68
2021/05/01 01:39:50;;;;;;;93.85;47.67;;;;;;;5.39;100.00;95371.91;1027069;28;20023;-69
2021/05/01 01:40:21;;;;;;;95.10;46.65;;;;;;;5.39;100.00;95374.50;1026864;28;20278;-68
2021/05/01 01:40:51;;;;;;;85.97;46.95;;;;;;;5.40;100.00;95378.69;1024036;28;20057;-68
2021/05/01 01:41:22;;;;;;;89.80;47.70;;;;;;;5.39;100.00;95369.28;1027234;28;20023;-68
2021/05/01 01:41:52;;;;;;;88.18;46.88;;;;;;;5.39;100.00;95365.91;1026393;28;20105;-70
2021/05/01 01:42:23;;;;;;;98.25;48.70;;;;;;;5.41;100.00;95371.66;1035419;28;20029;-69
2021/05/01 01:42:53;;;;;;;91.45;48.78;;;;;;;5.42;100.00;95368.81;1031142;28;20026;-68
2021/05/01 01:43:25;;;;;;;88.70;46.80;;;;;;;5.43;100.00;95369.59;1032767;28;20527;-68
2021/05/01 01:43:56;;;;;;;110.35;51.72;;;;;;;5.39;100.00;95369.28;1022125;29;20031;-68
2021/05/01 01:44:26;;;;;;;88.93;47.50;;;;;;;5.41;100.00;95371.66;1016663;29;20271;-70
2021/05/01 01:44:57;;;;;;;110.75;51.15;;;;;;;5.43;100.00;95364.41;1016686;29;20032;-69
2021/05/01 01:45:27;;;;;;;102.93;49.67;;;;;;;5.40;100.00;95367.50;1018553;28;20040;-71
2021/05/01 01:46:00;;;;;;;117.68;53.95;;;;;;;5.41;100.00;95367.25;1031378;28;20025;-66
2021/05/01 01:46:33;;;;;;;114.22;53.53;;;;;;;5.46;100.00;95365.75;1023369;28;20122;-69
2021/05/01 01:47:03;;;;;;;99.72;49.78;;;;;;;5.47;100.00;95364.75;1020634;28;20278;-66
2021/05/01 01:47:34;;;;;;;97.10;48.55;;;;;;;5.48;100.00;95371.50;1026226;28;20277;-68
2021/05/01 01:48:04;;;;;;;103.45;50.55;;;;;;;5.41;100.00;95359.44;1023693;28;20016;-67
2021/05/01 01:48:35;;;;;;;91.18;47.50;;;;;;;5.52;100.00;95367.41;1036943;28;20109;-68
2021/05/01 01:49:05;;;;;;;95.13;49.75;;;;;;;5.51;100.00;95365.81;1037772;28;20013;-68
2021/05/01 01:49:39;;;;;;;82.13;46.33;;;;;;;5.50;100.00;95364.22;1030872;28;20029;-68
2021/05/01 01:50:11;;;;;;;76.20;42.92;;;;;;;5.39;100.00;95358.88;1026433;28;20105;-68
2021/05/01 01:50:42;;;;;;;128.20;53.70;;;;;;;5.49;100.00;95366.03;1027026;28;20837;-68
2021/05/01 01:51:12;;;;;;;93.85;48.20;;;;;;;5.47;100.00;95359.53;1027813;28;20328;-69
2021/05/01 01:51:43;;;;;;;81.20;45.58;;;;;;;5.41;100.00;95354.25;1030705;28;20018;-68
2021/05/01 01:52:13;;;;;;;92.90;46.92;;;;;;;5.48;100.00;95372.28;1026682;28;20391;-69
2021/05/01 01:52:44;;;;;;;105.07;49.10;;;;;;;5.47;100.00;95369.94;1026965;28;20096;-70
2021/05/01 01:53:14;;;;;;;110.50;52.42;;;;;;;5.47;100.00;95375.16;1027263;28;20440;-70
2021/05/01 01:53:45;;;;;;;88.72;46.80;;;;;;;5.46;100.00;95378.75;1029106;28;20026;-69
2021/05/01 01:54:15;;;;;;;81.90;44.05;;;;;;;5.46;100.00;95379.53;1029959;28;20022;-68
2021/05/01 01:54:46;;;;;;;75.68;42.30;;;;;;;5.42;100.00;95381.81;1022960;29;20050;-68
2021/05/01 01:55:18;;;;;;;75.88;43.20;;;;;;;5.40;100.00;95376.09;1021829;28;20086;-68
2021/05/01 01:55:49;;;;;;;69.25;42.20;;;;;;;5.43;100.00;95380.81;1026993;28;20653;-69
2021/05/01 01:56:20;;;;;;;92.35;47.65;;;;;;;5.46;100.00;95386.56;1026975;28;20792;-68
2021/05/01 01:56:50;;;;;;;112.53;50.28;;;;;;;5.48;100.00;95381.91;1022471;28;20302;-69
2021/05/01 01:57:21;;;;;;;114.60;51.95;;;;;;;5.48;100.00;95381.91;1022900;28;20031;-68
2021/05/01 01:57:51;;;;;;;118.13;52.35;;;;;;;5.47;100.00;95380.34;1022772;29;20057;-68
2021/05/01 01:58:22;;;;;;;117.50;52.90;;;;;;;5.47;100.00;95385.56;1023267;28;20557;-68
2021/05/01 01:58:53;;;;;;;104.13;50.50;;;;;;;5.46;100.00;95387.34;1022326;28;20027;-69
2021/05/01 01:59:24;;;;;;;90.30;46.55;;;;;;;5.40;100.00;95378.69;1015160;29;20079;-66
2021/05/01 01:59:54;;;;;;;77.90;45.33;;;;;;;5.43;100.00;95385.22;1015066;29;20304;-68
2021/05/01 02:00:26;;;;;;;71.90;42.72;;;;;;;5.37;100.00;95384.38;1015728;29;20418;-69
2021/05/01 02:00:57;;;;;;;74.50;43.17;;;;;;;5.46;100.00;95395.16;1015650;29;20048;-69
2021/05/01 02:01:27;;;;;;;72.25;39.83;;;;;;;5.45;100.00;95398.78;1023463;28;20270;-69
2021/05/01 02:01:58;;;;;;;68.60;41.85;;;;;;;5.36;100.00;95387.97;1026756;28;20377;-68
2021/05/01 02:02:29;;;;;;;75.72;43.40;;;;;;;5.41;100.00;95402.91;1027217;28;20046;-68
2021/05/01 02:03:00;;;;;;;78.70;43.30;;;;;;;5.42;100.00;95397.44;1030989;28;20026;-68
2021/05/01 02:03:30;;;;;;;79.80;45.85;;;;;;;5.43;100.00;95403.44;1026902;28;20740;-68
2021/05/01 02:04:01;;;;;;;88.30;46.72;;;;;;;5.40;100.00;95396.13;1025118;28;21380;-68
2021/05/01 02:04:31;;;;;;;73.85;43.47;;;;;;;5.41;100.00;95406.28;1018883;29;20035;-68
2021/05/01 02:05:03;;;;;;;81.32;45.08;;;;;;;5.39;100.00;95403.13;1018820;29;20024;-68
2021/05/01 02:05:33;;;;;;;79.95;44.25;;;;;;;5.41;100.00;95400.28;1026827;28;20109;-69
2021/05/01 02:06:04;;;;;;;82.65;44.72;;;;;;;5.38;100.00;95393.75;1031075;28;20740;-68
2021/05/01 02:06:34;;;;;;;73.75;42.33;;;;;;;5.39;100.00;95397.91;1031166;28;20064;-69
2021/05/01 02:07:05;;;;;;;85.43;46.00;;;;;;;5.37;100.00;95397.38;1026726;28;20360;-69
2021/05/01 02:07:35;;;;;;;91.85;46.10;;;;;;;5.38;100.00;95398.16;1019270;29;20090;-68
2021/05/01 02:08:06;;;;;;;94.82;49.42;;;;;;;5.33;100.00;95398.88;1022347;28;20035;-69
2021/05/01 02:08:36;;;;;;;80.15;45.92;;;;;;;5.31;100.00;95398.31;1026697;28;20611;-69
2021/05/01 02:09:07;;;;;;;75.07;43.53;;;;;;;5.34;100.00;95397.84;1024153;28;20075;-68
2021/05/01 02:09:37;;;;;;;79.75;43.53;;;;;;;5.30;100.00;95390.75;1023592;28;20027;-69
2021/05/01 02:10:08;;;;;;;69.28;42.17;;;;;;;5.30;100.00;95394.16;1030898;28;20053;-67
2021/05/01 02:10:39;;;;;;;67.38;41.88;;;;;;;5.31;100.00;95397.53;1028127;28;20126;-68
2021/05/01 02:11:09;;;;;;;72.75;42.30;;;;;;;5.28;100.00;95395.41;1030537;28;20295;-68
2021/05/01 02:11:40;;;;;;;84.35;46.53;;;;;;;5.26;100.00;95394.84;1030833;28;20038;-68
2021/05/01 02:12:11;;;;;;;87.47;46.35;;;;;;;5.28;100.00;95393.59;1027123;28;20503;-69
2021/05/01 02:12:42;;;;;;;103.93;49.50;;;;;;;5.31;100.00;95387.13;1022688;28;20031;-65
2021/05/01 02:13:13;;;;;;;94.82;48.97;;;;;;;5.10;100.00;95365.25;1022913;29;20321;-69
2021/05/01 02:13:44;;;;;;;80.78;45.40;;;;;;;5.29;100.00;95394.38;1019302;29;20275;-68
2021/05/01 02:14:14;;;;;;;85.45;46.88;;;;;;;5.30;100.00;95390.75;1022922;28;20031;-68
2021/05/01 02:14:44;;;;;;;87.57;47.35;;;;;;;5.29;100.00;95389.16;1027535;28;20023;-69
2021/05/01 02:15:17;;;;;;;85.78;47.15;;;;;;;5.29;100.00;95389.97;1026394;28;20062;-68
2021/05/01 02:15:48;;;;;;;92.65;47.38;;;;;;;5.26;100.00;95390.44;1029908;28;20510;-68
2021/05/01 02:16:18;;;;;;;83.53;44.72;;;;;;;5.24;100.00;95389.91;1023267;28;20270;-69
2021/05/01 02:16:49;;;;;;;85.90;46.63;;;;;;;5.24;100.00;95386.50;1022614;29;20027;-68
2021/05/01 02:17:19;;;;;;;97.13;50.47;;;;;;;5.22;100.00;95389.34;1026578;28;20042;-68
2021/05/01 02:17:51;;;;;;;89.13;46.35;;;;;;;5.19;100.00;95390.59;1027326;28;20448;-69
2021/05/01 02:18:22;;;;;;;76.28;45.50;;;;;;;5.21;100.00;95398.16;1026836;28;20524;-68
2021/05/01 02:18:52;;;;;;;83.18;46.03;;;;;;;5.22;100.00;95394.53;1030791;28;20274;-67
2021/05/01 02:19:22;;;;;;;78.20;44.40;;;;;;;5.23;100.00;95390.94;1023663;28;20165;-69
2021/05/01 02:19:53;;;;;;;85.90;45.92;;;;;;;5.20;100.00;95391.41;1022098;28;20134;-68
2021/05/01 02:20:31;;;;;;;87.25;46.47;;;;;;;5.22;100.00;95394.53;1022953;29;20036;-70
2021/05/01 02:21:02;;;;;;;85.45;44.78;;;;;;;5.25;100.00;95388.88;1022473;28;20042;-70
2021/05/01 02:21:32;;;;;;;80.05;44.92;;;;;;;5.24;100.00;95389.91;1027012;28;20278;-68
2021/05/01 02:22:02;;;;;;;110.63;49.75;;;;;;;5.22;100.00;95384.13;1035998;28;20033;-67